createdAt,value
2017-03-03T00:00:03.594Z,926.36
2017-03-03T00:00:24.084Z,926.34
2017-03-03T00:00:43.874Z,926.35
2017-03-03T00:01:04.328Z,926.38
2017-03-03T00:01:24.838Z,926.36
2017-03-03T00:01:44.669Z,926.42
2017-03-03T00:02:04.484Z,926.41
2017-03-03T00:02:23.659Z,926.4
2017-03-03T00:02:43.511Z,926.42
2017-03-03T00:03:04.038Z,926.39
2017-03-03T00:03:24.492Z,926.41
2017-03-03T00:03:45.101Z,926.41
2017-03-03T00:04:05.599Z,926.39
2017-03-03T00:04:26.065Z,926.42
2017-03-03T00:04:45.265Z,926.38
2017-03-03T00:05:05.729Z,926.43
2017-03-03T00:05:26.183Z,926.4
2017-03-03T00:05:45.958Z,926.39
2017-03-03T00:06:05.766Z,926.39
2017-03-03T00:06:26.200Z,926.36
2017-03-03T00:06:46.661Z,926.36
2017-03-03T00:07:07.086Z,926.38
2017-03-03T00:07:27.560Z,926.38
2017-03-03T00:07:48.042Z,926.42
2017-03-03T00:08:07.885Z,926.36
2017-03-03T00:08:28.315Z,926.35
2017-03-03T00:08:49.032Z,926.4
2017-03-03T00:09:09.481Z,926.41
2017-03-03T00:09:29.290Z,926.36
2017-03-03T00:09:49.720Z,926.4
2017-03-03T00:10:09.578Z,926.4
2017-03-03T00:10:30.049Z,926.4
2017-03-03T00:10:49.825Z,926.41
2017-03-03T00:11:10.305Z,926.37
2017-03-03T00:11:30.768Z,926.36
2017-03-03T00:11:51.236Z,926.38
2017-03-03T00:12:11.670Z,926.39
2017-03-03T00:12:31.466Z,926.41
2017-03-03T00:12:51.267Z,926.39
2017-03-03T00:13:11.714Z,926.41
2017-03-03T00:13:32.155Z,926.39
2017-03-03T00:13:52.697Z,926.39
2017-03-03T00:14:13.159Z,926.38
2017-03-03T00:14:32.961Z,926.34
2017-03-03T00:14:53.383Z,926.37
2017-03-03T00:15:13.859Z,926.38
2017-03-03T00:15:34.389Z,926.37
2017-03-03T00:15:54.808Z,926.36
2017-03-03T00:16:15.260Z,926.37
2017-03-03T00:16:35.056Z,926.33
2017-03-03T00:16:55.537Z,926.35
2017-03-03T00:17:16.062Z,926.38
2017-03-03T00:17:36.495Z,926.35
2017-03-03T00:17:56.262Z,926.36
2017-03-03T00:18:16.058Z,926.33
2017-03-03T00:18:36.510Z,926.36
2017-03-03T00:18:56.306Z,926.36
2017-03-03T00:19:17.730Z,926.34
2017-03-03T00:19:38.189Z,926.34
2017-03-03T00:19:58.687Z,926.33
2017-03-03T00:20:19.129Z,926.35
2017-03-03T00:20:39.042Z,926.34
2017-03-03T00:20:59.560Z,926.32
2017-03-03T00:21:20.063Z,926.29
2017-03-03T00:21:39.899Z,926.31
2017-03-03T00:22:00.374Z,926.3
2017-03-03T00:22:20.213Z,926.31
2017-03-03T00:22:40.761Z,926.3
2017-03-03T00:23:01.276Z,926.3
2017-03-03T00:23:21.823Z,926.31
2017-03-03T00:23:41.720Z,926.29
2017-03-03T00:24:02.230Z,926.29
2017-03-03T00:24:22.749Z,926.32
2017-03-03T00:24:43.202Z,926.27
2017-03-03T00:25:03.656Z,926.3
2017-03-03T00:25:23.449Z,926.29
2017-03-03T00:25:43.939Z,926.31
2017-03-03T00:26:04.368Z,926.31
2017-03-03T00:26:24.889Z,926.33
2017-03-03T00:26:45.391Z,926.29
2017-03-03T00:27:05.837Z,926.3
2017-03-03T00:27:26.309Z,926.26
2017-03-03T00:27:46.882Z,926.27
2017-03-03T00:28:06.720Z,926.28
2017-03-03T00:28:27.206Z,926.23
2017-03-03T00:28:48.143Z,926.26
2017-03-03T00:29:08.842Z,926.28
2017-03-03T00:29:29.820Z,926.21
2017-03-03T00:29:50.416Z,926.2
2017-03-03T00:30:10.301Z,926.22
2017-03-03T00:30:30.159Z,926.23
2017-03-03T00:30:50.619Z,926.21
2017-03-03T00:31:11.079Z,926.22
2017-03-03T00:31:31.540Z,926.2
2017-03-03T00:31:52.015Z,926.19
2017-03-03T00:32:11.803Z,926.2
2017-03-03T00:32:32.277Z,926.24
2017-03-03T00:32:52.826Z,926.19
2017-03-03T00:33:13.238Z,926.23
2017-03-03T00:33:33.728Z,926.2
2017-03-03T00:33:54.215Z,926.18
2017-03-03T00:34:14.719Z,926.21
2017-03-03T00:34:48.962Z,926.25
2017-03-03T00:35:09.421Z,926.23
2017-03-03T00:35:29.877Z,926.24
2017-03-03T00:35:50.339Z,926.26
2017-03-03T00:36:10.870Z,926.19
2017-03-03T00:36:31.382Z,926.2
2017-03-03T00:36:51.847Z,926.23
2017-03-03T00:37:12.294Z,926.22
2017-03-03T00:37:32.730Z,926.23
2017-03-03T00:37:53.495Z,926.26
2017-03-03T00:38:13.308Z,926.25
2017-03-03T00:38:33.783Z,926.26
2017-03-03T00:38:54.469Z,926.26
2017-03-03T00:39:14.306Z,926.22
2017-03-03T00:39:34.831Z,926.26
2017-03-03T00:39:55.311Z,926.25
2017-03-03T00:40:15.737Z,926.25
2017-03-03T00:40:36.167Z,926.21
2017-03-03T00:40:55.960Z,926.25
2017-03-03T00:41:16.434Z,926.25
2017-03-03T00:41:36.301Z,926.26
2017-03-03T00:41:56.796Z,926.25
2017-03-03T00:42:17.295Z,926.23
2017-03-03T00:42:37.798Z,926.29
2017-03-03T00:42:58.295Z,926.27
2017-03-03T00:43:18.744Z,926.28
2017-03-03T00:43:38.595Z,926.27
2017-03-03T00:43:59.320Z,926.26
2017-03-03T00:44:19.836Z,926.3
2017-03-03T00:44:38.982Z,926.32
2017-03-03T00:44:59.453Z,926.27
2017-03-03T00:45:19.894Z,926.29
2017-03-03T00:45:40.416Z,926.3
2017-03-03T00:46:00.251Z,926.24
2017-03-03T00:46:20.697Z,926.28
2017-03-03T00:46:41.162Z,926.28
2017-03-03T00:47:00.984Z,926.27
2017-03-03T00:47:20.825Z,926.28
2017-03-03T00:47:41.284Z,926.3
2017-03-03T00:48:01.075Z,926.32
2017-03-03T00:48:21.521Z,926.35
2017-03-03T00:48:41.372Z,926.31
2017-03-03T00:49:01.187Z,926.3
2017-03-03T00:49:21.028Z,926.32
2017-03-03T00:49:41.460Z,926.31
2017-03-03T00:50:01.275Z,926.31
2017-03-03T00:50:21.721Z,926.32
2017-03-03T00:50:42.164Z,926.3
2017-03-03T00:51:02.651Z,926.34
2017-03-03T00:51:23.094Z,926.29
2017-03-03T00:51:43.565Z,926.31
2017-03-03T00:52:03.985Z,926.32
2017-03-03T00:52:23.789Z,926.32
2017-03-03T00:52:43.639Z,926.34
2017-03-03T00:53:03.476Z,926.37
2017-03-03T00:53:23.923Z,926.34
2017-03-03T00:53:44.359Z,926.35
2017-03-03T00:54:04.134Z,926.38
2017-03-03T00:54:23.918Z,926.41
2017-03-03T00:54:44.422Z,926.38
2017-03-03T00:55:04.834Z,926.38
2017-03-03T00:55:25.266Z,926.38
2017-03-03T00:55:45.054Z,926.4
2017-03-03T00:56:05.483Z,926.41
2017-03-03T00:56:25.938Z,926.43
2017-03-03T00:56:45.757Z,926.43
2017-03-03T00:57:06.175Z,926.41
2017-03-03T00:57:26.644Z,926.41
2017-03-03T00:57:46.445Z,926.43
2017-03-03T00:58:06.959Z,926.43
2017-03-03T00:58:27.438Z,926.44
2017-03-03T00:58:47.871Z,926.41
2017-03-03T00:59:08.579Z,926.44
2017-03-03T00:59:29.034Z,926.46
2017-03-03T00:59:49.472Z,926.45
2017-03-03T01:00:08.621Z,926.53
2017-03-03T01:00:29.082Z,926.49
2017-03-03T01:00:49.609Z,926.5
2017-03-03T01:01:09.413Z,926.51
2017-03-03T01:01:29.832Z,926.5
2017-03-03T01:01:49.639Z,926.52
2017-03-03T01:02:10.109Z,926.55
2017-03-03T01:02:30.568Z,926.53
2017-03-03T01:02:51.013Z,926.52
2017-03-03T01:03:11.482Z,926.56
2017-03-03T01:03:31.922Z,926.55
2017-03-03T01:03:51.747Z,926.57
2017-03-03T01:04:12.339Z,926.55
2017-03-03T01:04:32.795Z,926.56
2017-03-03T01:04:52.619Z,926.56
2017-03-03T01:05:13.068Z,926.53
2017-03-03T01:05:32.874Z,926.52
2017-03-03T01:05:53.321Z,926.56
2017-03-03T01:06:13.129Z,926.55
2017-03-03T01:06:33.555Z,926.56
2017-03-03T01:06:53.362Z,926.54
2017-03-03T01:07:13.787Z,926.54
2017-03-03T01:07:34.237Z,926.53
2017-03-03T01:07:54.653Z,926.55
2017-03-03T01:08:15.138Z,926.52
2017-03-03T01:08:35.586Z,926.53
2017-03-03T01:08:56.031Z,926.54
2017-03-03T01:09:16.626Z,926.55
2017-03-03T01:09:37.085Z,926.53
2017-03-03T01:09:57.519Z,926.52
2017-03-03T01:10:17.971Z,926.51
2017-03-03T01:10:38.413Z,926.5
2017-03-03T01:10:58.196Z,926.52
2017-03-03T01:11:18.646Z,926.56
2017-03-03T01:11:39.102Z,926.52
2017-03-03T01:11:59.547Z,926.55
2017-03-03T01:12:19.344Z,926.55
2017-03-03T01:12:39.136Z,926.58
2017-03-03T01:12:59.607Z,926.55
2017-03-03T01:13:20.025Z,926.55
2017-03-03T01:13:39.827Z,926.55
2017-03-03T01:14:00.314Z,926.55
2017-03-03T01:14:20.922Z,926.54
2017-03-03T01:14:40.742Z,926.56
2017-03-03T01:15:01.219Z,926.57
2017-03-03T01:15:21.716Z,926.54
2017-03-03T01:15:42.149Z,926.56
2017-03-03T01:16:02.622Z,926.57
2017-03-03T01:16:23.088Z,926.58
2017-03-03T01:16:43.552Z,926.53
2017-03-03T01:17:04.039Z,926.54
2017-03-03T01:17:24.527Z,926.56
2017-03-03T01:17:44.979Z,926.58
2017-03-03T01:18:05.398Z,926.55
2017-03-03T01:18:25.217Z,926.56
2017-03-03T01:18:45.010Z,926.55
2017-03-03T01:19:05.437Z,926.55
2017-03-03T01:19:25.912Z,926.53
2017-03-03T01:19:46.371Z,926.6
2017-03-03T01:20:06.896Z,926.59
2017-03-03T01:20:26.690Z,926.59
2017-03-03T01:20:47.133Z,926.59
2017-03-03T01:21:07.605Z,926.58
2017-03-03T01:21:28.049Z,926.59
2017-03-03T01:21:48.464Z,926.57
2017-03-03T01:22:08.300Z,926.57
2017-03-03T01:22:28.720Z,926.6
2017-03-03T01:22:49.185Z,926.56
2017-03-03T01:23:08.973Z,926.59
2017-03-03T01:23:29.417Z,926.59
2017-03-03T01:23:49.869Z,926.56
2017-03-03T01:24:10.317Z,926.56
2017-03-03T01:24:29.538Z,926.58
2017-03-03T01:24:49.990Z,926.58
2017-03-03T01:25:10.442Z,926.61
2017-03-03T01:25:30.222Z,926.57
2017-03-03T01:25:50.694Z,926.59
2017-03-03T01:26:11.135Z,926.62
2017-03-03T01:26:31.587Z,926.61
2017-03-03T01:26:52.060Z,926.58
2017-03-03T01:27:11.847Z,926.61
2017-03-03T01:27:32.316Z,926.6
2017-03-03T01:27:52.127Z,926.62
2017-03-03T01:28:12.581Z,926.6
2017-03-03T01:28:33.042Z,926.61
2017-03-03T01:28:53.511Z,926.62
2017-03-03T01:29:13.327Z,926.64
2017-03-03T01:29:33.896Z,926.63
2017-03-03T01:29:54.352Z,926.65
2017-03-03T01:30:14.162Z,926.65
2017-03-03T01:30:33.983Z,926.67
2017-03-03T01:30:54.456Z,926.63
2017-03-03T01:31:14.896Z,926.63
2017-03-03T01:31:35.319Z,926.63
2017-03-03T01:31:55.762Z,926.62
2017-03-03T01:32:16.230Z,926.65
2017-03-03T01:32:36.673Z,926.65
2017-03-03T01:32:57.115Z,926.64
2017-03-03T01:33:17.561Z,926.65
2017-03-03T01:33:37.977Z,926.66
2017-03-03T01:33:57.136Z,926.68
2017-03-03T01:34:17.222Z,926.67
2017-03-03T01:34:37.649Z,926.64
2017-03-03T01:34:58.100Z,926.63
2017-03-03T01:35:18.558Z,926.64
2017-03-03T01:35:39.013Z,926.66
2017-03-03T01:35:59.480Z,926.65
2017-03-03T01:36:19.897Z,926.7
2017-03-03T01:36:39.082Z,926.68
2017-03-03T01:36:59.544Z,926.71
2017-03-03T01:37:19.990Z,926.68
2017-03-03T01:37:40.434Z,926.69
2017-03-03T01:38:00.863Z,926.72
2017-03-03T01:38:21.326Z,926.73
2017-03-03T01:38:41.783Z,926.75
2017-03-03T01:39:02.221Z,926.73
2017-03-03T01:39:22.643Z,926.74
2017-03-03T01:39:43.116Z,926.76
2017-03-03T01:40:02.932Z,926.74
2017-03-03T01:40:23.392Z,926.75
2017-03-03T01:40:43.183Z,926.75
2017-03-03T01:41:03.025Z,926.72
2017-03-03T01:41:23.498Z,926.72
2017-03-03T01:41:43.913Z,926.75
2017-03-03T01:42:04.370Z,926.71
2017-03-03T01:42:24.839Z,926.72
2017-03-03T01:42:45.289Z,926.7
2017-03-03T01:43:05.702Z,926.72
2017-03-03T01:43:26.140Z,926.74
2017-03-03T01:43:46.578Z,926.71
2017-03-03T01:44:07.031Z,926.7
2017-03-03T01:44:26.840Z,926.72
2017-03-03T01:44:47.267Z,926.74
2017-03-03T01:45:07.706Z,926.72
2017-03-03T01:45:28.152Z,926.64
2017-03-03T01:45:48.609Z,926.68
2017-03-03T01:46:09.041Z,926.68
2017-03-03T01:46:28.883Z,926.73
2017-03-03T01:46:49.293Z,926.66
2017-03-03T01:47:09.750Z,926.63
2017-03-03T01:47:30.190Z,926.63
2017-03-03T01:47:49.959Z,926.69
2017-03-03T01:48:10.404Z,926.69
2017-03-03T01:48:30.933Z,926.68
2017-03-03T01:48:50.883Z,926.67
2017-03-03T01:49:11.391Z,926.68
2017-03-03T01:49:31.862Z,926.66
2017-03-03T01:49:52.341Z,926.66
2017-03-03T01:50:12.177Z,926.7
2017-03-03T01:50:32.640Z,926.66
2017-03-03T01:50:53.080Z,926.64
2017-03-03T01:51:13.602Z,926.68
2017-03-03T01:51:34.578Z,926.66
2017-03-03T01:51:55.012Z,926.67
2017-03-03T01:52:15.548Z,926.7
2017-03-03T01:52:36.055Z,926.75
2017-03-03T01:52:56.531Z,926.69
2017-03-03T01:53:17.020Z,926.7
2017-03-03T01:53:37.998Z,926.71
2017-03-03T01:53:58.466Z,926.7
2017-03-03T01:54:18.382Z,926.7
2017-03-03T01:54:38.834Z,926.74
2017-03-03T01:54:59.283Z,926.72
2017-03-03T01:55:19.740Z,926.74
2017-03-03T01:55:40.229Z,926.76
2017-03-03T01:56:00.697Z,926.73
2017-03-03T01:56:21.164Z,926.76
2017-03-03T01:56:41.632Z,926.77
2017-03-03T01:57:02.179Z,926.77
2017-03-03T01:57:22.679Z,926.78
2017-03-03T01:57:42.458Z,926.82
2017-03-03T01:58:02.962Z,926.77
2017-03-03T01:58:23.484Z,926.77
2017-03-03T01:58:43.959Z,926.78
2017-03-03T01:59:04.433Z,926.81
2017-03-03T01:59:24.850Z,926.79
2017-03-03T01:59:45.346Z,926.76
2017-03-03T02:00:05.833Z,926.77
2017-03-03T02:00:27.981Z,926.77
2017-03-03T02:00:48.518Z,926.76
2017-03-03T02:01:08.965Z,926.77
2017-03-03T02:01:29.437Z,926.8
2017-03-03T02:01:49.917Z,926.76
2017-03-03T02:02:10.391Z,926.8
2017-03-03T02:02:30.941Z,926.72
2017-03-03T02:02:51.449Z,926.72
2017-03-03T02:03:11.984Z,926.72
2017-03-03T02:03:32.506Z,926.76
2017-03-03T02:03:52.951Z,926.76
2017-03-03T02:04:13.526Z,926.75
2017-03-03T02:04:34.191Z,926.75
2017-03-03T02:04:54.641Z,926.74
2017-03-03T02:05:15.161Z,926.75
2017-03-03T02:05:35.622Z,926.76
2017-03-03T02:05:56.043Z,926.76
2017-03-03T02:06:16.449Z,926.78
2017-03-03T02:06:36.863Z,926.76
2017-03-03T02:06:56.629Z,926.76
2017-03-03T02:07:17.067Z,926.75
2017-03-03T02:07:37.562Z,926.76
2017-03-03T02:07:58.046Z,926.75
2017-03-03T02:08:18.492Z,926.79
2017-03-03T02:08:38.935Z,926.8
2017-03-03T02:08:59.385Z,926.74
2017-03-03T02:09:19.831Z,926.78
2017-03-03T02:09:40.281Z,926.79
2017-03-03T02:10:00.736Z,926.77
2017-03-03T02:10:21.204Z,926.78
2017-03-03T02:10:41.682Z,926.75
2017-03-03T02:11:02.153Z,926.75
2017-03-03T02:11:22.615Z,926.77
2017-03-03T02:11:43.093Z,926.77
2017-03-03T02:12:02.895Z,926.72
2017-03-03T02:12:22.711Z,926.72
2017-03-03T02:12:43.175Z,926.7
2017-03-03T02:13:03.612Z,926.71
2017-03-03T02:13:24.060Z,926.7
2017-03-03T02:13:43.262Z,926.69
2017-03-03T02:14:03.717Z,926.76
2017-03-03T02:14:24.344Z,926.71
2017-03-03T02:14:44.810Z,926.73
2017-03-03T02:15:05.239Z,926.68
2017-03-03T02:15:25.679Z,926.66
2017-03-03T02:15:46.100Z,926.68
2017-03-03T02:16:05.902Z,926.69
2017-03-03T02:16:25.059Z,926.66
2017-03-03T02:16:44.900Z,926.65
2017-03-03T02:17:39.559Z,926.66
2017-03-03T02:17:59.383Z,926.65
2017-03-03T02:18:19.829Z,926.64
2017-03-03T02:18:39.660Z,926.64
2017-03-03T02:19:00.130Z,926.62
2017-03-03T02:19:20.587Z,926.62
2017-03-03T02:19:40.413Z,926.63
2017-03-03T02:20:00.863Z,926.63
2017-03-03T02:20:21.289Z,926.63
2017-03-03T02:20:41.697Z,926.64
2017-03-03T02:21:01.510Z,926.61
2017-03-03T02:21:21.978Z,926.64
2017-03-03T02:21:42.453Z,926.58
2017-03-03T02:22:02.295Z,926.63
2017-03-03T02:22:22.098Z,926.63
2017-03-03T02:22:42.577Z,926.59
2017-03-03T02:23:03.082Z,926.64
2017-03-03T02:23:23.597Z,926.61
2017-03-03T02:23:44.120Z,926.58
2017-03-03T02:24:04.566Z,926.6
2017-03-03T02:24:25.028Z,926.6
2017-03-03T02:24:45.462Z,926.6
2017-03-03T02:25:05.890Z,926.59
2017-03-03T02:25:26.330Z,926.58
2017-03-03T02:25:46.176Z,926.6
2017-03-03T02:26:05.992Z,926.56
2017-03-03T02:26:26.457Z,926.56
2017-03-03T02:26:46.941Z,926.52
2017-03-03T02:27:06.158Z,926.53
2017-03-03T02:27:27.063Z,926.55
2017-03-03T02:27:46.854Z,926.55
2017-03-03T02:28:06.660Z,926.57
2017-03-03T02:28:27.141Z,926.54
2017-03-03T02:28:47.617Z,926.55
2017-03-03T02:29:08.099Z,926.53
2017-03-03T02:29:29.580Z,926.52
2017-03-03T02:29:50.040Z,926.52
2017-03-03T02:30:09.861Z,926.53
2017-03-03T02:30:30.330Z,926.5
2017-03-03T02:30:50.770Z,926.51
2017-03-03T02:31:11.213Z,926.53
2017-03-03T02:31:31.697Z,926.52
2017-03-03T02:31:52.128Z,926.5
2017-03-03T02:32:12.602Z,926.51
2017-03-03T02:32:33.082Z,926.55
2017-03-03T02:32:53.539Z,926.51
2017-03-03T02:33:13.999Z,926.51
2017-03-03T02:33:33.836Z,926.55
2017-03-03T02:33:54.353Z,926.55
2017-03-03T02:34:14.192Z,926.57
2017-03-03T02:34:34.639Z,926.54
2017-03-03T02:34:55.083Z,926.54
2017-03-03T02:35:15.664Z,926.54
2017-03-03T02:35:36.096Z,926.54
2017-03-03T02:35:56.535Z,926.52
2017-03-03T02:36:16.351Z,926.55
2017-03-03T02:36:36.167Z,926.54
2017-03-03T02:36:56.601Z,926.54
2017-03-03T02:37:17.015Z,926.5
2017-03-03T02:37:36.841Z,926.53
2017-03-03T02:37:57.318Z,926.53
2017-03-03T02:38:17.275Z,926.5
2017-03-03T02:38:36.447Z,926.49
2017-03-03T02:38:56.220Z,926.51
2017-03-03T02:39:16.671Z,926.54
2017-03-03T02:39:36.465Z,926.52
2017-03-03T02:39:56.917Z,926.49
2017-03-03T02:40:16.210Z,926.49
2017-03-03T02:40:36.655Z,926.48
2017-03-03T02:40:57.097Z,926.5
2017-03-03T02:41:17.557Z,926.5
2017-03-03T02:41:38.013Z,926.52
2017-03-03T02:41:58.503Z,926.49
2017-03-03T02:42:18.957Z,926.48
2017-03-03T02:42:39.427Z,926.5
2017-03-03T02:42:59.885Z,926.47
2017-03-03T02:43:19.743Z,926.5
2017-03-03T02:43:39.530Z,926.5
2017-03-03T02:43:59.987Z,926.48
2017-03-03T02:44:20.746Z,926.47
2017-03-03T02:44:41.226Z,926.45
2017-03-03T02:45:01.666Z,926.46
2017-03-03T02:45:22.124Z,926.46
2017-03-03T02:45:42.592Z,926.47
2017-03-03T02:46:02.400Z,926.45
2017-03-03T02:46:22.839Z,926.46
2017-03-03T02:46:43.277Z,926.48
2017-03-03T02:47:03.736Z,926.51
2017-03-03T02:47:23.552Z,926.49
2017-03-03T02:47:44.029Z,926.49
2017-03-03T02:48:04.475Z,926.5
2017-03-03T02:48:24.939Z,926.51
2017-03-03T02:48:45.359Z,926.45
2017-03-03T02:49:05.805Z,926.43
2017-03-03T02:49:26.236Z,926.49
2017-03-03T02:49:46.680Z,926.48
2017-03-03T02:50:07.105Z,926.49
2017-03-03T02:50:26.918Z,926.49
2017-03-03T02:50:47.358Z,926.47
2017-03-03T02:51:06.528Z,926.51
2017-03-03T02:51:26.341Z,926.5
2017-03-03T02:51:45.485Z,926.46
2017-03-03T02:52:05.960Z,926.47
2017-03-03T02:52:26.413Z,926.45
2017-03-03T02:52:46.216Z,926.49
2017-03-03T02:53:06.036Z,926.52
2017-03-03T02:53:26.473Z,926.44
2017-03-03T02:53:46.949Z,926.47
2017-03-03T02:54:07.403Z,926.47
2017-03-03T02:54:27.868Z,926.46
2017-03-03T02:54:48.334Z,926.45
2017-03-03T02:55:08.773Z,926.46
2017-03-03T02:55:29.220Z,926.43
2017-03-03T02:55:49.706Z,926.45
2017-03-03T02:56:09.492Z,926.45
2017-03-03T02:56:29.299Z,926.42
2017-03-03T02:56:49.768Z,926.44
2017-03-03T02:57:09.575Z,926.45
2017-03-03T02:57:30.043Z,926.47
2017-03-03T02:57:50.508Z,926.48
2017-03-03T02:58:11.156Z,926.46
2017-03-03T02:58:30.333Z,926.47
2017-03-03T02:58:50.798Z,926.45
2017-03-03T02:59:11.292Z,926.44
2017-03-03T02:59:31.769Z,926.47
2017-03-03T02:59:52.205Z,926.44
2017-03-03T03:00:12.015Z,926.43
2017-03-03T03:00:31.846Z,926.44
2017-03-03T03:00:52.320Z,926.41
2017-03-03T03:01:12.739Z,926.41
2017-03-03T03:01:32.539Z,926.46
2017-03-03T03:01:52.314Z,926.44
2017-03-03T03:02:12.091Z,926.45
2017-03-03T03:02:32.543Z,926.39
2017-03-03T03:02:53.016Z,926.4
2017-03-03T03:03:13.448Z,926.38
2017-03-03T03:03:33.885Z,926.39
2017-03-03T03:03:54.352Z,926.41
2017-03-03T03:04:14.867Z,926.41
2017-03-03T03:04:35.360Z,926.41
2017-03-03T03:04:55.787Z,926.34
2017-03-03T03:05:15.624Z,926.37
2017-03-03T03:05:36.058Z,926.35
2017-03-03T03:05:56.496Z,926.37
2017-03-03T03:06:16.290Z,926.37
2017-03-03T03:06:35.433Z,926.39
2017-03-03T03:06:55.880Z,926.36
2017-03-03T03:07:16.359Z,926.37
2017-03-03T03:07:36.814Z,926.38
2017-03-03T03:07:57.274Z,926.37
2017-03-03T03:08:17.184Z,926.35
2017-03-03T03:08:37.940Z,926.4
2017-03-03T03:08:58.391Z,926.36
2017-03-03T03:09:19.030Z,926.3
2017-03-03T03:09:39.533Z,926.35
2017-03-03T03:09:59.356Z,926.35
2017-03-03T03:10:19.176Z,926.33
2017-03-03T03:10:38.982Z,926.34
2017-03-03T03:10:59.438Z,926.35
2017-03-03T03:11:19.864Z,926.35
2017-03-03T03:11:40.302Z,926.39
2017-03-03T03:12:00.755Z,926.38
2017-03-03T03:12:21.229Z,926.36
2017-03-03T03:12:41.756Z,926.36
2017-03-03T03:13:02.194Z,926.35
2017-03-03T03:13:22.646Z,926.38
2017-03-03T03:13:42.415Z,926.32
2017-03-03T03:14:02.880Z,926.36
2017-03-03T03:14:23.607Z,926.31
2017-03-03T03:14:44.045Z,926.33
2017-03-03T03:15:04.475Z,926.27
2017-03-03T03:15:24.935Z,926.3
2017-03-03T03:15:45.372Z,926.31
2017-03-03T03:16:05.801Z,926.35
2017-03-03T03:16:25.602Z,926.27
2017-03-03T03:16:46.078Z,926.32
2017-03-03T03:17:06.531Z,926.31
2017-03-03T03:17:26.994Z,926.27
2017-03-03T03:17:46.121Z,926.32
2017-03-03T03:18:06.608Z,926.33
2017-03-03T03:18:27.036Z,926.33
2017-03-03T03:18:46.834Z,926.32
2017-03-03T03:19:07.265Z,926.29
2017-03-03T03:19:28.036Z,926.25
2017-03-03T03:19:48.529Z,926.29
2017-03-03T03:20:08.952Z,926.26
2017-03-03T03:20:29.409Z,926.28
2017-03-03T03:20:49.833Z,926.26
2017-03-03T03:21:10.303Z,926.25
2017-03-03T03:21:30.743Z,926.29
2017-03-03T03:21:51.197Z,926.28
2017-03-03T03:22:11.649Z,926.28
2017-03-03T03:22:32.109Z,926.28
2017-03-03T03:22:52.547Z,926.25
2017-03-03T03:23:12.402Z,926.26
2017-03-03T03:23:52.092Z,926.26
2017-03-03T03:24:12.589Z,926.27
2017-03-03T03:24:33.051Z,926.24
2017-03-03T03:24:53.517Z,926.31
2017-03-03T03:25:13.978Z,926.32
2017-03-03T03:25:33.814Z,926.28
2017-03-03T03:25:53.605Z,926.23
2017-03-03T03:26:14.049Z,926.31
2017-03-03T03:26:34.539Z,926.28
2017-03-03T03:26:54.330Z,926.31
2017-03-03T03:27:14.819Z,926.27
2017-03-03T03:27:35.292Z,926.27
2017-03-03T03:27:55.755Z,926.29
2017-03-03T03:28:15.580Z,926.24
2017-03-03T03:28:36.027Z,926.28
2017-03-03T03:28:56.477Z,926.29
2017-03-03T03:29:16.917Z,926.27
2017-03-03T03:29:37.379Z,926.27
2017-03-03T03:29:57.795Z,926.22
2017-03-03T03:30:18.229Z,926.2
2017-03-03T03:30:38.008Z,926.27
2017-03-03T03:30:58.463Z,926.24
2017-03-03T03:31:18.941Z,926.26
2017-03-03T03:31:39.378Z,926.24
2017-03-03T03:31:59.820Z,926.23
2017-03-03T03:32:20.304Z,926.19
2017-03-03T03:32:40.761Z,926.2
2017-03-03T03:33:00.592Z,926.2
2017-03-03T03:33:21.033Z,926.2
2017-03-03T03:33:41.459Z,926.23
2017-03-03T03:34:01.272Z,926.23
2017-03-03T03:34:21.776Z,926.23
2017-03-03T03:34:42.227Z,926.17
2017-03-03T03:35:02.706Z,926.16
2017-03-03T03:35:23.151Z,926.15
2017-03-03T03:35:42.314Z,926.14
2017-03-03T03:36:02.764Z,926.17
2017-03-03T03:36:23.217Z,926.21
2017-03-03T03:36:43.027Z,926.17
2017-03-03T03:37:03.495Z,926.2
2017-03-03T03:37:23.975Z,926.22
2017-03-03T03:37:44.429Z,926.2
2017-03-03T03:38:04.901Z,926.18
2017-03-03T03:38:25.342Z,926.19
2017-03-03T03:38:45.803Z,926.16
2017-03-03T03:39:06.289Z,926.18
2017-03-03T03:39:26.976Z,926.13
2017-03-03T03:39:47.450Z,926.18
2017-03-03T03:40:07.921Z,926.21
2017-03-03T03:40:28.346Z,926.15
2017-03-03T03:40:48.821Z,926.18
2017-03-03T03:41:08.620Z,926.15
2017-03-03T03:41:29.127Z,926.16
2017-03-03T03:41:49.586Z,926.13
2017-03-03T03:42:10.087Z,926.14
2017-03-03T03:42:30.501Z,926.15
2017-03-03T03:42:50.932Z,926.18
2017-03-03T03:43:11.395Z,926.19
2017-03-03T03:43:31.874Z,926.18
2017-03-03T03:43:52.329Z,926.13
2017-03-03T03:44:12.764Z,926.2
2017-03-03T03:44:32.550Z,926.18
2017-03-03T03:44:52.333Z,926.18
2017-03-03T03:45:12.765Z,926.14
2017-03-03T03:45:33.237Z,926.11
2017-03-03T03:45:53.708Z,926.16
2017-03-03T03:46:13.514Z,926.2
2017-03-03T03:46:33.960Z,926.21
2017-03-03T03:46:54.425Z,926.11
2017-03-03T03:47:14.231Z,926.11
2017-03-03T03:47:34.687Z,926.16
2017-03-03T03:47:55.146Z,926.16
2017-03-03T03:48:15.642Z,926.22
2017-03-03T03:48:35.468Z,926.18
2017-03-03T03:48:55.900Z,926.12
2017-03-03T03:49:16.368Z,926.15
2017-03-03T03:49:36.310Z,926.14
2017-03-03T03:49:56.122Z,926.16
2017-03-03T03:50:16.591Z,926.15
2017-03-03T03:50:37.050Z,926.2
2017-03-03T03:50:57.527Z,926.15
2017-03-03T03:51:17.987Z,926.19
2017-03-03T03:51:38.446Z,926.18
2017-03-03T03:51:58.908Z,926.16
2017-03-03T03:52:19.374Z,926.22
2017-03-03T03:52:39.819Z,926.16
2017-03-03T03:53:00.270Z,926.18
2017-03-03T03:53:20.722Z,926.19
2017-03-03T03:53:41.212Z,926.16
2017-03-03T03:54:01.659Z,926.17
2017-03-03T03:54:22.130Z,926.17
2017-03-03T03:54:41.911Z,926.19
2017-03-03T03:55:01.722Z,926.13
2017-03-03T03:55:22.209Z,926.16
2017-03-03T03:55:42.670Z,926.21
2017-03-03T03:56:03.129Z,926.2
2017-03-03T03:56:22.928Z,926.24
2017-03-03T03:56:42.718Z,926.23
2017-03-03T03:57:03.191Z,926.19
2017-03-03T03:57:23.651Z,926.19
2017-03-03T03:57:44.119Z,926.12
2017-03-03T03:58:04.568Z,926.13
2017-03-03T03:58:25.051Z,926.14
2017-03-03T03:58:45.535Z,926.16
2017-03-03T03:59:06.004Z,926.14
2017-03-03T03:59:27.409Z,926.07
2017-03-03T03:59:47.892Z,926.18
2017-03-03T04:00:07.724Z,926.16
2017-03-03T04:00:27.541Z,926.15
2017-03-03T04:00:47.971Z,926.19
2017-03-03T04:01:08.423Z,926.18
2017-03-03T04:01:28.900Z,926.14
2017-03-03T04:01:49.348Z,926.2
2017-03-03T04:02:09.783Z,926.19
2017-03-03T04:02:29.576Z,926.19
2017-03-03T04:02:50.031Z,926.2
2017-03-03T04:03:10.477Z,926.21
2017-03-03T04:03:30.275Z,926.17
2017-03-03T04:03:50.723Z,926.17
2017-03-03T04:04:11.164Z,926.18
2017-03-03T04:04:31.609Z,926.1
2017-03-03T04:04:52.079Z,926.15
2017-03-03T04:05:11.910Z,926.13
2017-03-03T04:05:32.379Z,926.11
2017-03-03T04:05:52.846Z,926.12
2017-03-03T04:06:13.314Z,926.1
2017-03-03T04:06:33.744Z,926.08
2017-03-03T04:06:54.216Z,926.13
2017-03-03T04:07:14.665Z,926.11
2017-03-03T04:07:35.102Z,926.15
2017-03-03T04:07:55.547Z,926.14
2017-03-03T04:08:15.340Z,926.14
2017-03-03T04:08:35.813Z,926.18
2017-03-03T04:08:56.296Z,926.14
2017-03-03T04:09:16.769Z,926.21
2017-03-03T04:09:36.725Z,926.16
2017-03-03T04:09:57.174Z,926.19
2017-03-03T04:10:17.602Z,926.16
2017-03-03T04:10:38.048Z,926.18
2017-03-03T04:10:58.516Z,926.09
2017-03-03T04:11:18.976Z,926.13
2017-03-03T04:11:38.779Z,926.11
2017-03-03T04:11:59.259Z,926.14
2017-03-03T04:12:19.120Z,926.13
2017-03-03T04:12:38.926Z,926.13
2017-03-03T04:12:59.369Z,926.11
2017-03-03T04:13:19.859Z,926.13
2017-03-03T04:13:39.680Z,926.12
2017-03-03T04:14:00.120Z,926.15
2017-03-03T04:14:19.939Z,926.05
2017-03-03T04:14:40.788Z,926.04
2017-03-03T04:15:01.233Z,926.03